CZFN/ZFN METAR and TAF weather

Enter ICAO airport designator
Station Type Date Time Source
CZFN METAR 2020/11/27 00:00 UTC NOAA

CZFN 270000Z 32004KT 1 1/2SM -SN OVC033 M12/M15 A2919 RMK SN6SC2 LAST STFD OBS NEXT 271600 SLP897


Station Type Date Time Source
CZFN Decoded METAR 2020/11/27 00:00 UTC NOAA

Fort Norman Airport, Canada (CZFN) 64-55N 125-34W
Nov 26, 2020 - 07:00 PM EST / 2020.11.27 0000 UTC
Wind: from the NW (320 degrees) at 5 MPH (4 KT):0
Visibility: 1 1/2 mile(s):0
Sky conditions: overcast
Weather: light snow
Temperature: 10 F (-12 C)
Windchill: 1 F (-17 C):1
Dew Point: 5 F (-15 C)
Relative Humidity: 78%
Pressure (altimeter): 29.19 in. Hg (988 hPa)
ob: CZFN 270000Z 32004KT 1 1/2SM -SN OVC033 M12/M15 A2919 RMK SN6SC2 LAST STFD OBS NEXT 271600 SLP897
cycle: 0

Station Type Date Time Source
CZFN TAF UTC NOAA

Error!

Example: see airport list